sensor_id;sensor_type;location;lat;lon;timestamp;P1;durP1;ratioP1;P2;durP2;ratioP2
38853;SDS011;24606;51.992;4.198;2024-03-06T00:00:11;8.52;;;5.65;;
38853;SDS011;24606;51.992;4.198;2024-03-06T00:05:13;8.80;;;6.47;;
38853;SDS011;24606;51.992;4.198;2024-03-06T00:10:15;8.32;;;5.85;;
38853;SDS011;24606;51.992;4.198;2024-03-06T00:15:19;7.53;;;4.80;;
38853;SDS011;24606;51.992;4.198;2024-03-06T00:20:21;6.55;;;5.20;;
38853;SDS011;24606;51.992;4.198;2024-03-06T00:25:23;7.53;;;5.20;;
38853;SDS011;24606;51.992;4.198;2024-03-06T00:30:26;11.73;;;8.35;;
38853;SDS011;24606;51.992;4.198;2024-03-06T00:35:28;17.65;;;12.40;;
38853;SDS011;24606;51.992;4.198;2024-03-06T00:40:31;17.13;;;12.80;;
38853;SDS011;24606;51.992;4.198;2024-03-06T00:45:34;13.65;;;9.10;;
38853;SDS011;24606;51.992;4.198;2024-03-06T00:50:36;5.95;;;4.15;;
38853;SDS011;24606;51.992;4.198;2024-03-06T00:55:38;7.57;;;5.30;;
38853;SDS011;24606;51.992;4.198;2024-03-06T01:00:42;6.90;;;5.45;;
38853;SDS011;24606;51.992;4.198;2024-03-06T01:05:44;7.50;;;5.35;;
38853;SDS011;24606;51.992;4.198;2024-03-06T01:10:46;5.35;;;4.35;;
38853;SDS011;24606;51.992;4.198;2024-03-06T01:15:51;5.95;;;4.28;;
38853;SDS011;24606;51.992;4.198;2024-03-06T01:20:53;8.68;;;5.03;;
38853;SDS011;24606;51.992;4.198;2024-03-06T01:25:55;6.93;;;5.17;;
38853;SDS011;24606;51.992;4.198;2024-03-06T01:30:59;9.32;;;5.38;;
38853;SDS011;24606;51.992;4.198;2024-03-06T01:36:01;4.15;;;3.42;;
38853;SDS011;24606;51.992;4.198;2024-03-06T01:41:03;16.17;;;11.60;;
38853;SDS011;24606;51.992;4.198;2024-03-06T01:46:07;17.10;;;12.27;;
38853;SDS011;24606;51.992;4.198;2024-03-06T01:51:09;7.75;;;4.85;;
38853;SDS011;24606;51.992;4.198;2024-03-06T01:56:11;7.43;;;5.72;;
38853;SDS011;24606;51.992;4.198;2024-03-06T02:01:19;6.53;;;4.75;;
38853;SDS011;24606;51.992;4.198;2024-03-06T02:06:22;7.25;;;5.03;;
38853;SDS011;24606;51.992;4.198;2024-03-06T02:11:24;6.70;;;4.57;;
38853;SDS011;24606;51.992;4.198;2024-03-06T02:16:30;11.90;;;8.40;;
38853;SDS011;24606;51.992;4.198;2024-03-06T02:21:33;11.75;;;4.70;;
38853;SDS011;24606;51.992;4.198;2024-03-06T02:26:35;6.10;;;4.47;;
38853;SDS011;24606;51.992;4.198;2024-03-06T02:31:38;11.90;;;8.55;;
38853;SDS011;24606;51.992;4.198;2024-03-06T02:36:41;5.50;;;3.67;;
38853;SDS011;24606;51.992;4.198;2024-03-06T02:41:43;5.13;;;3.70;;
38853;SDS011;24606;51.992;4.198;2024-03-06T02:46:46;5.75;;;4.35;;
38853;SDS011;24606;51.992;4.198;2024-03-06T02:51:50;8.05;;;4.95;;
38853;SDS011;24606;51.992;4.198;2024-03-06T02:56:52;6.10;;;4.03;;
38853;SDS011;24606;51.992;4.198;2024-03-06T03:01:54;14.20;;;9.27;;
38853;SDS011;24606;51.992;4.198;2024-03-06T03:06:57;4.37;;;3.27;;
38853;SDS011;24606;51.992;4.198;2024-03-06T03:11:59;5.13;;;3.80;;
38853;SDS011;24606;51.992;4.198;2024-03-06T03:17:02;6.05;;;4.40;;
38853;SDS011;24606;51.992;4.198;2024-03-06T03:22:07;8.32;;;6.00;;
38853;SDS011;24606;51.992;4.198;2024-03-06T03:27:10;5.25;;;3.88;;
38853;SDS011;24606;51.992;4.198;2024-03-06T03:32:12;8.43;;;5.93;;
38853;SDS011;24606;51.992;4.198;2024-03-06T03:37:18;5.78;;;4.18;;
38853;SDS011;24606;51.992;4.198;2024-03-06T03:42:20;5.60;;;4.53;;
38853;SDS011;24606;51.992;4.198;2024-03-06T03:47:22;10.82;;;6.97;;
38853;SDS011;24606;51.992;4.198;2024-03-06T03:52:25;4.65;;;3.95;;
38853;SDS011;24606;51.992;4.198;2024-03-06T04:15:30;12.50;;;8.20;;
38853;SDS011;24606;51.992;4.198;2024-03-06T04:20:32;9.65;;;6.90;;
38853;SDS011;24606;51.992;4.198;2024-03-06T04:25:34;10.17;;;7.17;;
38853;SDS011;24606;51.992;4.198;2024-03-06T04:30:38;8.13;;;6.10;;
38853;SDS011;24606;51.992;4.198;2024-03-06T04:35:40;16.15;;;10.40;;
38853;SDS011;24606;51.992;4.198;2024-03-06T04:40:43;11.75;;;7.97;;
38853;SDS011;24606;51.992;4.198;2024-03-06T04:45:46;7.68;;;6.00;;
38853;SDS011;24606;51.992;4.198;2024-03-06T04:50:48;9.75;;;6.72;;
38853;SDS011;24606;51.992;4.198;2024-03-06T04:55:50;13.47;;;7.80;;
38853;SDS011;24606;51.992;4.198;2024-03-06T05:00:54;7.40;;;5.53;;
38853;SDS011;24606;51.992;4.198;2024-03-06T05:05:56;6.28;;;4.70;;
38853;SDS011;24606;51.992;4.198;2024-03-06T05:10:59;10.10;;;6.75;;
38853;SDS011;24606;51.992;4.198;2024-03-06T05:16:04;9.55;;;6.82;;
38853;SDS011;24606;51.992;4.198;2024-03-06T05:21:08;6.93;;;6.03;;
38853;SDS011;24606;51.992;4.198;2024-03-06T05:26:10;7.65;;;6.18;;
38853;SDS011;24606;51.992;4.198;2024-03-06T05:31:17;11.33;;;6.43;;
38853;SDS011;24606;51.992;4.198;2024-03-06T05:36:20;10.98;;;7.85;;
38853;SDS011;24606;51.992;4.198;2024-03-06T05:41:22;7.33;;;5.00;;
38853;SDS011;24606;51.992;4.198;2024-03-06T05:46:25;4.78;;;3.88;;
38853;SDS011;24606;51.992;4.198;2024-03-06T05:51:27;10.52;;;6.28;;
38853;SDS011;24606;51.992;4.198;2024-03-06T05:56:30;11.73;;;6.85;;
38853;SDS011;24606;51.992;4.198;2024-03-06T06:01:33;8.43;;;6.13;;
38853;SDS011;24606;51.992;4.198;2024-03-06T06:06:35;5.30;;;4.22;;
38853;SDS011;24606;51.992;4.198;2024-03-06T06:11:38;8.30;;;6.20;;
38853;SDS011;24606;51.992;4.198;2024-03-06T06:16:42;8.32;;;6.25;;
38853;SDS011;24606;51.992;4.198;2024-03-06T06:21:44;9.02;;;6.78;;
38853;SDS011;24606;51.992;4.198;2024-03-06T06:26:48;9.05;;;7.15;;
38853;SDS011;24606;51.992;4.198;2024-03-06T06:31:51;9.50;;;6.23;;
38853;SDS011;24606;51.992;4.198;2024-03-06T06:36:54;8.45;;;6.20;;
38853;SDS011;24606;51.992;4.198;2024-03-06T06:41:56;12.20;;;7.13;;
38853;SDS011;24606;51.992;4.198;2024-03-06T06:46:59;8.13;;;5.78;;
38853;SDS011;24606;51.992;4.198;2024-03-06T06:52:01;14.27;;;10.40;;
38853;SDS011;24606;51.992;4.198;2024-03-06T06:57:03;11.70;;;5.87;;
38853;SDS011;24606;51.992;4.198;2024-03-06T07:02:06;10.33;;;7.13;;
38853;SDS011;24606;51.992;4.198;2024-03-06T07:07:08;9.38;;;6.57;;
38853;SDS011;24606;51.992;4.198;2024-03-06T07:12:10;7.77;;;5.13;;
38853;SDS011;24606;51.992;4.198;2024-03-06T07:17:14;7.72;;;5.88;;
38853;SDS011;24606;51.992;4.198;2024-03-06T07:22:16;10.35;;;6.30;;
38853;SDS011;24606;51.992;4.198;2024-03-06T07:27:18;9.30;;;5.67;;
38853;SDS011;24606;51.992;4.198;2024-03-06T07:32:21;20.77;;;10.77;;
38853;SDS011;24606;51.992;4.198;2024-03-06T07:37:24;19.20;;;8.00;;
38853;SDS011;24606;51.992;4.198;2024-03-06T07:42:26;9.52;;;6.72;;
38853;SDS011;24606;51.992;4.198;2024-03-06T07:47:29;7.40;;;6.20;;
38853;SDS011;24606;51.992;4.198;2024-03-06T07:52:31;7.45;;;5.07;;
38853;SDS011;24606;51.992;4.198;2024-03-06T07:57:33;16.77;;;11.57;;
38853;SDS011;24606;51.992;4.198;2024-03-06T08:02:36;13.40;;;8.07;;
38853;SDS011;24606;51.992;4.198;2024-03-06T08:07:39;11.35;;;6.05;;
38853;SDS011;24606;51.992;4.198;2024-03-06T08:12:44;10.75;;;7.15;;
38853;SDS011;24606;51.992;4.198;2024-03-06T08:17:56;13.27;;;7.50;;
38853;SDS011;24606;51.992;4.198;2024-03-06T08:22:58;30.42;;;9.57;;
38853;SDS011;24606;51.992;4.198;2024-03-06T08:28:00;50.37;;;13.77;;
38853;SDS011;24606;51.992;4.198;2024-03-06T08:33:08;13.65;;;7.07;;
38853;SDS011;24606;51.992;4.198;2024-03-06T08:38:10;12.02;;;5.72;;
38853;SDS011;24606;51.992;4.198;2024-03-06T08:43:12;18.57;;;6.10;;
38853;SDS011;24606;51.992;4.198;2024-03-06T08:48:17;18.27;;;7.70;;
38853;SDS011;24606;51.992;4.198;2024-03-06T08:53:19;25.30;;;12.23;;
38853;SDS011;24606;51.992;4.198;2024-03-06T08:58:21;23.80;;;13.60;;
38853;SDS011;24606;51.992;4.198;2024-03-06T09:03:25;12.38;;;7.95;;
38853;SDS011;24606;51.992;4.198;2024-03-06T09:08:27;10.85;;;7.72;;
38853;SDS011;24606;51.992;4.198;2024-03-06T09:13:29;8.65;;;5.50;;
38853;SDS011;24606;51.992;4.198;2024-03-06T09:18:36;14.97;;;10.57;;
38853;SDS011;24606;51.992;4.198;2024-03-06T09:23:38;23.63;;;13.43;;
38853;SDS011;24606;51.992;4.198;2024-03-06T09:28:40;22.15;;;13.57;;
38853;SDS011;24606;51.992;4.198;2024-03-06T09:33:43;17.30;;;11.35;;
38853;SDS011;24606;51.992;4.198;2024-03-06T09:38:47;21.20;;;14.70;;
38853;SDS011;24606;51.992;4.198;2024-03-06T09:43:48;29.45;;;18.05;;
38853;SDS011;24606;51.992;4.198;2024-03-06T09:48:56;21.85;;;13.50;;
38853;SDS011;24606;51.992;4.198;2024-03-06T09:53:58;20.05;;;14.77;;
38853;SDS011;24606;51.992;4.198;2024-03-06T09:59:00;21.55;;;13.43;;
38853;SDS011;24606;51.992;4.198;2024-03-06T10:04:18;17.92;;;11.15;;
38853;SDS011;24606;51.992;4.198;2024-03-06T10:09:23;18.38;;;12.25;;
38853;SDS011;24606;51.992;4.198;2024-03-06T10:14:28;20.52;;;10.30;;
38853;SDS011;24606;51.992;4.198;2024-03-06T10:19:35;21.63;;;13.27;;
38853;SDS011;24606;51.992;4.198;2024-03-06T10:24:37;19.33;;;13.38;;
38853;SDS011;24606;51.992;4.198;2024-03-06T10:29:40;21.73;;;14.30;;
38853;SDS011;24606;51.992;4.198;2024-03-06T10:34:44;11.57;;;8.38;;
38853;SDS011;24606;51.992;4.198;2024-03-06T10:39:46;17.40;;;12.23;;
38853;SDS011;24606;51.992;4.198;2024-03-06T10:44:52;16.27;;;9.20;;
38853;SDS011;24606;51.992;4.198;2024-03-06T10:49:59;21.42;;;12.32;;
38853;SDS011;24606;51.992;4.198;2024-03-06T10:55:04;16.73;;;10.00;;
38853;SDS011;24606;51.992;4.198;2024-03-06T11:05:19;12.45;;;8.75;;
38853;SDS011;24606;51.992;4.198;2024-03-06T11:10:31;13.25;;;6.68;;
38853;SDS011;24606;51.992;4.198;2024-03-06T11:15:33;13.38;;;9.57;;
38853;SDS011;24606;51.992;4.198;2024-03-06T11:20:39;17.42;;;11.48;;
38853;SDS011;24606;51.992;4.198;2024-03-06T11:31:04;20.97;;;14.63;;
38853;SDS011;24606;51.992;4.198;2024-03-06T11:36:18;24.60;;;19.10;;
38853;SDS011;24606;51.992;4.198;2024-03-06T11:41:21;24.33;;;16.80;;
38853;SDS011;24606;51.992;4.198;2024-03-06T11:46:40;10.07;;;6.95;;
38853;SDS011;24606;51.992;4.198;2024-03-06T11:51:45;12.13;;;9.00;;
38853;SDS011;24606;51.992;4.198;2024-03-06T11:56:48;16.55;;;12.05;;
38853;SDS011;24606;51.992;4.198;2024-03-06T12:01:51;13.35;;;9.75;;
38853;SDS011;24606;51.992;4.198;2024-03-06T12:06:57;14.25;;;10.05;;
38853;SDS011;24606;51.992;4.198;2024-03-06T12:12:00;19.90;;;11.90;;
38853;SDS011;24606;51.992;4.198;2024-03-06T12:17:02;15.55;;;10.18;;
38853;SDS011;24606;51.992;4.198;2024-03-06T12:22:06;21.90;;;15.20;;
38853;SDS011;24606;51.992;4.198;2024-03-06T12:27:08;15.48;;;11.15;;
38853;SDS011;24606;51.992;4.198;2024-03-06T12:32:18;18.20;;;11.88;;
38853;SDS011;24606;51.992;4.198;2024-03-06T12:37:28;13.02;;;9.50;;
38853;SDS011;24606;51.992;4.198;2024-03-06T12:42:31;14.50;;;6.68;;
38853;SDS011;24606;51.992;4.198;2024-03-06T12:47:34;9.63;;;8.52;;
38853;SDS011;24606;51.992;4.198;2024-03-06T12:52:37;11.02;;;7.05;;
38853;SDS011;24606;51.992;4.198;2024-03-06T12:57:39;7.13;;;5.28;;
38853;SDS011;24606;51.992;4.198;2024-03-06T13:02:41;9.48;;;6.85;;
38853;SDS011;24606;51.992;4.198;2024-03-06T13:07:45;6.57;;;5.88;;
38853;SDS011;24606;51.992;4.198;2024-03-06T13:12:47;23.63;;;15.43;;
38853;SDS011;24606;51.992;4.198;2024-03-06T13:17:49;23.70;;;16.73;;
38853;SDS011;24606;51.992;4.198;2024-03-06T13:22:53;25.15;;;16.92;;
38853;SDS011;24606;51.992;4.198;2024-03-06T13:27:56;22.70;;;16.35;;
38853;SDS011;24606;51.992;4.198;2024-03-06T13:32:59;19.08;;;14.93;;
38853;SDS011;24606;51.992;4.198;2024-03-06T13:38:02;22.60;;;17.13;;
38853;SDS011;24606;51.992;4.198;2024-03-06T13:43:05;22.90;;;18.20;;
38853;SDS011;24606;51.992;4.198;2024-03-06T13:48:13;22.70;;;16.88;;
38853;SDS011;24606;51.992;4.198;2024-03-06T13:53:17;27.52;;;19.45;;
38853;SDS011;24606;51.992;4.198;2024-03-06T13:58:19;26.33;;;20.23;;
38853;SDS011;24606;51.992;4.198;2024-03-06T14:03:21;20.73;;;15.93;;
38853;SDS011;24606;51.992;4.198;2024-03-06T14:08:26;27.52;;;19.67;;
38853;SDS011;24606;51.992;4.198;2024-03-06T14:13:27;26.80;;;18.27;;
38853;SDS011;24606;51.992;4.198;2024-03-06T14:18:29;24.08;;;19.35;;
38853;SDS011;24606;51.992;4.198;2024-03-06T14:23:33;27.75;;;18.38;;
38853;SDS011;24606;51.992;4.198;2024-03-06T14:28:35;26.10;;;20.27;;
38853;SDS011;24606;51.992;4.198;2024-03-06T14:33:39;29.73;;;21.52;;
38853;SDS011;24606;51.992;4.198;2024-03-06T14:38:43;29.88;;;21.38;;
38853;SDS011;24606;51.992;4.198;2024-03-06T14:43:46;33.58;;;19.67;;
38853;SDS011;24606;51.992;4.198;2024-03-06T14:48:48;29.45;;;20.80;;
38853;SDS011;24606;51.992;4.198;2024-03-06T14:53:59;33.05;;;23.27;;
38853;SDS011;24606;51.992;4.198;2024-03-06T14:59:01;30.90;;;22.10;;
38853;SDS011;24606;51.992;4.198;2024-03-06T15:09:07;29.00;;;20.48;;
38853;SDS011;24606;51.992;4.198;2024-03-06T15:14:12;29.60;;;22.67;;
38853;SDS011;24606;51.992;4.198;2024-03-06T15:24:18;29.35;;;22.83;;
38853;SDS011;24606;51.992;4.198;2024-03-06T15:29:20;25.90;;;17.42;;
38853;SDS011;24606;51.992;4.198;2024-03-06T15:34:23;32.85;;;23.60;;
38853;SDS011;24606;51.992;4.198;2024-03-06T15:39:26;33.50;;;24.13;;
38853;SDS011;24606;51.992;4.198;2024-03-06T15:44:28;34.08;;;23.08;;
38853;SDS011;24606;51.992;4.198;2024-03-06T15:49:31;32.58;;;24.45;;
38853;SDS011;24606;51.992;4.198;2024-03-06T15:54:34;35.75;;;24.30;;
38853;SDS011;24606;51.992;4.198;2024-03-06T15:59:37;32.58;;;23.17;;
38853;SDS011;24606;51.992;4.198;2024-03-06T16:04:40;37.38;;;25.75;;
38853;SDS011;24606;51.992;4.198;2024-03-06T16:09:43;33.60;;;22.77;;
38853;SDS011;24606;51.992;4.198;2024-03-06T16:14:46;31.08;;;21.05;;
38853;SDS011;24606;51.992;4.198;2024-03-06T16:19:48;33.17;;;21.90;;
38853;SDS011;24606;51.992;4.198;2024-03-06T16:24:51;36.13;;;22.58;;
38853;SDS011;24606;51.992;4.198;2024-03-06T16:29:54;37.92;;;25.75;;
38853;SDS011;24606;51.992;4.198;2024-03-06T16:34:56;32.33;;;22.27;;
38853;SDS011;24606;51.992;4.198;2024-03-06T16:40:00;34.45;;;23.23;;
38853;SDS011;24606;51.992;4.198;2024-03-06T16:45:04;30.63;;;21.92;;
38853;SDS011;24606;51.992;4.198;2024-03-06T16:50:12;35.95;;;24.50;;
38853;SDS011;24606;51.992;4.198;2024-03-06T16:55:16;34.22;;;24.17;;
38853;SDS011;24606;51.992;4.198;2024-03-06T17:00:18;42.45;;;28.30;;
38853;SDS011;24606;51.992;4.198;2024-03-06T17:05:22;38.40;;;26.27;;
38853;SDS011;24606;51.992;4.198;2024-03-06T17:10:26;57.30;;;29.75;;
38853;SDS011;24606;51.992;4.198;2024-03-06T17:15:30;40.33;;;25.17;;
38853;SDS011;24606;51.992;4.198;2024-03-06T17:25:35;50.33;;;29.13;;
38853;SDS011;24606;51.992;4.198;2024-03-06T17:30:38;48.92;;;25.95;;
38853;SDS011;24606;51.992;4.198;2024-03-06T17:35:42;59.25;;;25.35;;
38853;SDS011;24606;51.992;4.198;2024-03-06T17:40:48;54.10;;;20.48;;
38853;SDS011;24606;51.992;4.198;2024-03-06T17:45:51;68.45;;;28.75;;
38853;SDS011;24606;51.992;4.198;2024-03-06T17:50:55;57.38;;;24.23;;
38853;SDS011;24606;51.992;4.198;2024-03-06T17:56:00;85.18;;;27.35;;
38853;SDS011;24606;51.992;4.198;2024-03-06T18:01:04;43.85;;;23.10;;
38853;SDS011;24606;51.992;4.198;2024-03-06T18:06:08;97.57;;;27.48;;
38853;SDS011;24606;51.992;4.198;2024-03-06T18:11:12;121.10;;;27.10;;
38853;SDS011;24606;51.992;4.198;2024-03-06T18:16:14;80.25;;;27.15;;
38853;SDS011;24606;51.992;4.198;2024-03-06T18:21:16;75.47;;;25.73;;
38853;SDS011;24606;51.992;4.198;2024-03-06T18:26:20;53.53;;;27.65;;
38853;SDS011;24606;51.992;4.198;2024-03-06T18:31:22;58.80;;;28.25;;
38853;SDS011;24606;51.992;4.198;2024-03-06T18:36:24;52.10;;;30.92;;
38853;SDS011;24606;51.992;4.198;2024-03-06T18:41:28;42.03;;;24.80;;
38853;SDS011;24606;51.992;4.198;2024-03-06T18:46:30;45.53;;;30.58;;
38853;SDS011;24606;51.992;4.198;2024-03-06T18:51:33;67.25;;;31.60;;
38853;SDS011;24606;51.992;4.198;2024-03-06T18:56:37;137.40;;;29.85;;
38853;SDS011;24606;51.992;4.198;2024-03-06T19:01:40;286.67;;;32.47;;
38853;SDS011;24606;51.992;4.198;2024-03-06T19:06:45;140.90;;;30.08;;
38853;SDS011;24606;51.992;4.198;2024-03-06T19:11:50;417.70;;;31.20;;
38853;SDS011;24606;51.992;4.198;2024-03-06T19:16:53;153.77;;;20.73;;
38853;SDS011;24606;51.992;4.198;2024-03-06T19:21:54;76.93;;;18.23;;
38853;SDS011;24606;51.992;4.198;2024-03-06T19:26:58;38.95;;;16.27;;
38853;SDS011;24606;51.992;4.198;2024-03-06T19:32:00;67.97;;;15.15;;
38853;SDS011;24606;51.992;4.198;2024-03-06T19:37:03;109.95;;;19.65;;
38853;SDS011;24606;51.992;4.198;2024-03-06T19:42:07;37.40;;;14.05;;
38853;SDS011;24606;51.992;4.198;2024-03-06T19:47:09;59.70;;;29.38;;
38853;SDS011;24606;51.992;4.198;2024-03-06T19:52:11;25.63;;;15.90;;
38853;SDS011;24606;51.992;4.198;2024-03-06T19:57:15;34.72;;;24.10;;
38853;SDS011;24606;51.992;4.198;2024-03-06T20:02:16;28.45;;;20.02;;
38853;SDS011;24606;51.992;4.198;2024-03-06T20:07:19;22.67;;;14.05;;
38853;SDS011;24606;51.992;4.198;2024-03-06T20:17:25;26.83;;;14.10;;
38853;SDS011;24606;51.992;4.198;2024-03-06T20:27:31;38.63;;;25.65;;
38853;SDS011;24606;51.992;4.198;2024-03-06T20:32:33;26.10;;;16.20;;
38853;SDS011;24606;51.992;4.198;2024-03-06T20:37:35;30.35;;;20.88;;
38853;SDS011;24606;51.992;4.198;2024-03-06T20:42:38;28.90;;;20.35;;
38853;SDS011;24606;51.992;4.198;2024-03-06T20:47:41;29.85;;;17.15;;
38853;SDS011;24606;51.992;4.198;2024-03-06T20:52:43;28.65;;;16.35;;
38853;SDS011;24606;51.992;4.198;2024-03-06T20:57:47;24.95;;;15.68;;
38853;SDS011;24606;51.992;4.198;2024-03-06T21:02:50;23.77;;;14.25;;
38853;SDS011;24606;51.992;4.198;2024-03-06T21:07:52;26.17;;;14.13;;
38853;SDS011;24606;51.992;4.198;2024-03-06T21:12:55;25.35;;;12.95;;
38853;SDS011;24606;51.992;4.198;2024-03-06T21:17:57;25.00;;;12.63;;
38853;SDS011;24606;51.992;4.198;2024-03-06T21:22:59;29.27;;;12.48;;
38853;SDS011;24606;51.992;4.198;2024-03-06T21:28:03;22.17;;;12.18;;
38853;SDS011;24606;51.992;4.198;2024-03-06T21:33:05;22.50;;;11.93;;
38853;SDS011;24606;51.992;4.198;2024-03-06T21:38:07;27.60;;;14.65;;
38853;SDS011;24606;51.992;4.198;2024-03-06T21:43:13;22.65;;;13.73;;
38853;SDS011;24606;51.992;4.198;2024-03-06T21:48:15;22.95;;;12.57;;
38853;SDS011;24606;51.992;4.198;2024-03-06T21:53:17;23.20;;;11.20;;
38853;SDS011;24606;51.992;4.198;2024-03-06T21:58:21;22.35;;;11.00;;
38853;SDS011;24606;51.992;4.198;2024-03-06T22:03:24;27.02;;;13.95;;
38853;SDS011;24606;51.992;4.198;2024-03-06T22:13:29;28.02;;;14.07;;
38853;SDS011;24606;51.992;4.198;2024-03-06T22:18:32;31.55;;;16.25;;
38853;SDS011;24606;51.992;4.198;2024-03-06T22:23:34;21.42;;;12.90;;
38853;SDS011;24606;51.992;4.198;2024-03-06T22:28:37;27.25;;;16.10;;
38853;SDS011;24606;51.992;4.198;2024-03-06T22:33:39;30.35;;;16.02;;
38853;SDS011;24606;51.992;4.198;2024-03-06T22:38:42;26.33;;;13.35;;
38853;SDS011;24606;51.992;4.198;2024-03-06T22:43:45;19.08;;;12.13;;
38853;SDS011;24606;51.992;4.198;2024-03-06T22:48:48;25.92;;;13.70;;
38853;SDS011;24606;51.992;4.198;2024-03-06T22:53:50;20.35;;;12.70;;
38853;SDS011;24606;51.992;4.198;2024-03-06T22:58:53;25.17;;;12.80;;
38853;SDS011;24606;51.992;4.198;2024-03-06T23:03:55;25.63;;;13.38;;
38853;SDS011;24606;51.992;4.198;2024-03-06T23:08:57;28.75;;;15.80;;
38853;SDS011;24606;51.992;4.198;2024-03-06T23:14:01;22.67;;;13.18;;
38853;SDS011;24606;51.992;4.198;2024-03-06T23:19:03;21.35;;;12.57;;
38853;SDS011;24606;51.992;4.198;2024-03-06T23:24:05;21.60;;;13.57;;
38853;SDS011;24606;51.992;4.198;2024-03-06T23:34:12;19.65;;;10.80;;
38853;SDS011;24606;51.992;4.198;2024-03-06T23:39:15;28.48;;;15.23;;
38853;SDS011;24606;51.992;4.198;2024-03-06T23:44:24;23.33;;;13.35;;
38853;SDS011;24606;51.992;4.198;2024-03-06T23:49:27;28.85;;;15.38;;
38853;SDS011;24606;51.992;4.198;2024-03-06T23:54:32;23.05;;;11.63;;
38853;SDS011;24606;51.992;4.198;2024-03-06T23:59:41;24.70;;;14.50;;
